Aviation Digital Data Service (ADDS)

Output produced by METARs form (1406 UTC 01 September 2015)
found at http://aviationweather.gov/adds/metars/
 
KBWI 011124Z 0112/0218 30004KT P6SM FEW200 
     FM011600 00000KT P6SM FEW060 
     FM021700 VRB03KT P6SM BKN110